默认 日期 大小 文件数 浏览量 最新下载 xml
basic磁力链接相关资源由用户搜索指令自动获取,结果来源于网络,本站不存储任何资料,亦不承担任何责任,请于24小时内删除,搜索到6770个磁力,显示前4000条数据,用时7ms。
    ... ": 5025, "Book - Basic Concepts in Kabbalah - Free Kabbalah ... .pdf": 705697, "14 - Basic Concepts in Kabbalah - Key Concepts ... mp3": 6022157, "15 - Basic Concepts in Kabbalah - Frequently Asked ... mp3": 6832867, "13 - Basic Concepts in Kabbalah - Conditions ...
创建时间: 2018-10-29 08:18:25 大小:126.01 MB 文件数量:17 热度:20 最近下载:2025-02-04 00:54:05
    {"C#-Visual Basic Bilingual Dictionary - Visual Studio 2015 Edition.epub": 414130}
创建时间: 2018-10-29 16:31:02 大小:404.42 KB 文件数量:1 热度:20 最近下载:2025-07-07 09:39:02
    {"Key.txt": 39, "UiCore.dll": 118848, "readme.txt": 120, "3DMark_v100_installer.exe": 1017056800, "Русификатор x64": {"3DMark_x64_ru.exe": 6174784}, "Русификатор x86": {"3DMark_ru.exe": 6177344}}
创建时间: 2018-10-30 19:56:48 大小:981.83 MB 文件数量:6 热度:20 最近下载:2025-08-04 13:09:10
    {"Computer-User.txt": 0, "Windows 7 ACTIVATION.zip": 1763268, "Windows 7 USB - DVD Tool.exe": 2721168, "Windows 7 Home Basic SP1 (32 Bit).iso": 2564476928, "Windows 7 USB - DVD Tool Information.url": 291}
创建时间: 2018-10-31 12:16:11 大小:2.39 GB 文件数量:5 热度:20 最近下载:2025-03-17 14:55:01
    ... .mp3": 1286477}, "exemple.jpg": 1146764, "Basic Grammar in use.2nd Edition ...
创建时间: 2018-10-31 12:23:42 大小:265.05 MB 文件数量:45 热度:20 最近下载:2025-01-20 08:32:04
    ... , "back - Armin van Buuren - 002 Basic Instinct.jpg": 174059, "front - Armin ... van Buuren - 002 Basic Instinct.jpg": 53164}
创建时间: 2018-10-31 16:00:50 大小:337.52 MB 文件数量:5 热度:20 最近下载:2025-01-16 05:52:03
    {"1Edge eBooks.txt": 95, "Torrent_downloaded_from_Demonoid_-_www.demonoid.pw_.txt": 59, "U.S. Navy SEAL Guide to Basic Survival Secrets - Don Mann.epub": 474487}
创建时间: 2018-11-01 02:00:48 大小:463.52 KB 文件数量:3 热度:20 最近下载:2025-09-21 16:55:02
    {"Lilmeanman.nfo": 10958, "Sams Teach Yourself Visual Basic 6 in 21 Days.pdf": 8257758}
创建时间: 2018-11-02 11:32:23 大小:7.89 MB 文件数量:2 热度:20 最近下载:2025-10-18 00:20:03
    {"ECLiPSE.txt": 17115, "Read Me.txt": 677, "Basic Income And How We Can Make It Happen (Pelican Introductions).epub": 2044669}
创建时间: 2018-11-03 19:27:05 大小:1.97 MB 文件数量:3 热度:20 最近下载:2025-05-20 06:03:02
    ... me .url": 238, "Wiley - Visual Basic .NET At Work.pdf": 10465038 ...
创建时间: 2018-11-04 16:07:49 大小:22.57 MB 文件数量:6 热度:20 最近下载:2025-10-02 00:52:02
    {"MMA Plyo.mkv": 2061100038, "MMA Mashup.mkv": 1372973981, "Power Sculpt.mkv": 1924052428, "Core Kinetics.mkv": 875619017, "Active Recovery.mkv": 905847011, "Dynamic Strength.mkv": 2481503411, "Workout Calendar.pdf": 3115468, "MMA Power Workout.mkv": ...
创建时间: 2018-11-06 04:27:41 大小:15.43 GB 文件数量:17 热度:20 最近下载:2025-07-20 16:35:02
    {"02 Sketch": {"001 Line.mp4": 6144556, "004 Arcs.mp4": 8347927, "010 Text.mp4": 5865531, "003 Circle.mp4": 7247574, "007 Fillet.mp4": 9620510, "009 Pallet.mp4": 3331349, "008 Chamfer.mp4": 4604648, "005 Ecllipse.mp4": 3764749, "002 Rectangle.mp4": ...
创建时间: 2018-11-06 14:41:23 大小:560.6 MB 文件数量:67 热度:20 最近下载:2025-09-25 14:14:02
    {"Basic Electrical Engineering, 4th edition.pdf": 19490268}
创建时间: 2018-11-06 16:59:11 大小:18.59 MB 文件数量:1 热度:20 最近下载:2025-02-27 09:57:03
    {"Basic Arduino Projects - 26 Experiments with Microcontrollers and Electronics.pdf": 101652008}
创建时间: 2018-11-07 00:13:34 大小:96.94 MB 文件数量:1 热度:20 最近下载:2025-09-11 16:34:06
    {"jiggly-obinstinct-cd1.avi": 730855424, "jiggly-obinstinct-cd2.avi": 732913664}
创建时间: 2018-12-07 14:36:51 大小:1.36 GB 文件数量:2 热度:20 最近下载:2025-09-18 21:06:04
    {"I Can Do That! Woodworking Projects.epub": 58577991}
创建时间: 2018-12-24 10:37:42 大小:55.86 MB 文件数量:1 热度:20 最近下载:2025-10-02 06:43:03
    ... ": 29237555, "Cleaning Up Basic Instinct.mkv": 14267462}, "Basic Instinct 1992 Unrated DC ...
创建时间: 2018-12-27 21:00:32 大小:2.87 GB 文件数量:6 热度:20 最近下载:2025-08-13 00:20:03
    {"TutsGalaxy.com.txt": 52, "Download more courses.url": 123, "Downloaded from TutsGalaxy.com.txt": 73, "HTML Codes-Basic Elements Tags Attributes-Beginners guide.zip": 791715580}
创建时间: 2019-03-25 08:06:44 大小:755.04 MB 文件数量:4 热度:20 最近下载:2025-08-01 13:52:04
    ... �@mimip2p@Private Movies 34 Basic Sexual Instinct (Jane Darling) XXX ... �@mimip2p@Private Movies 34 Basic Sexual Instinct (Jane Darling) XXX ...
创建时间: 2020-02-06 14:50:47 大小:1.08 GB 文件数量:22 热度:20 最近下载:2025-06-10 21:46:02
    ... .txt": 3982, "Basic Instinct - Sharon Stone 1992": {"Basic Instinct - Sharon Stone ... 1992": {"Basic Instinct - Sharon Stone ... - Sharon Stone 2006": {"Basic Instinct - Sharon Stone": {"Basic Instinct 2 (2006) . ...
创建时间: 2020-05-04 05:18:12 大小:2.77 GB 文件数量:29 热度:20 最近下载:2025-07-23 01:37:02